sensor_id;sensor_type;location;lat;lon;timestamp;P1;durP1;ratioP1;P2;durP2;ratioP2
4704;SDS011;2366;51.332;6.610;2024-02-16T00:00:08;6.15;;;2.78;;
4704;SDS011;2366;51.332;6.610;2024-02-16T00:02:37;5.10;;;2.38;;
4704;SDS011;2366;51.332;6.610;2024-02-16T00:05:04;4.03;;;2.78;;
4704;SDS011;2366;51.332;6.610;2024-02-16T00:07:32;6.40;;;2.58;;
4704;SDS011;2366;51.332;6.610;2024-02-16T00:09:58;2.13;;;1.92;;
4704;SDS011;2366;51.332;6.610;2024-02-16T00:12:23;2.57;;;2.37;;
4704;SDS011;2366;51.332;6.610;2024-02-16T00:14:49;5.43;;;2.37;;
4704;SDS011;2366;51.332;6.610;2024-02-16T00:17:14;5.17;;;2.80;;
4704;SDS011;2366;51.332;6.610;2024-02-16T00:19:40;5.83;;;2.97;;
4704;SDS011;2366;51.332;6.610;2024-02-16T00:22:05;5.30;;;2.70;;
4704;SDS011;2366;51.332;6.610;2024-02-16T00:24:32;5.70;;;2.50;;
4704;SDS011;2366;51.332;6.610;2024-02-16T00:26:58;2.88;;;2.05;;
4704;SDS011;2366;51.332;6.610;2024-02-16T00:29:25;5.38;;;2.97;;
4704;SDS011;2366;51.332;6.610;2024-02-16T00:31:50;6.97;;;2.53;;
4704;SDS011;2366;51.332;6.610;2024-02-16T00:34:15;5.07;;;3.00;;
4704;SDS011;2366;51.332;6.610;2024-02-16T00:36:41;2.33;;;1.90;;
4704;SDS011;2366;51.332;6.610;2024-02-16T00:39:06;3.20;;;1.93;;
4704;SDS011;2366;51.332;6.610;2024-02-16T00:41:31;3.83;;;2.67;;
4704;SDS011;2366;51.332;6.610;2024-02-16T00:43:57;3.77;;;2.73;;
4704;SDS011;2366;51.332;6.610;2024-02-16T00:46:22;6.23;;;2.27;;
4704;SDS011;2366;51.332;6.610;2024-02-16T00:48:52;7.78;;;2.38;;
4704;SDS011;2366;51.332;6.610;2024-02-16T00:51:18;5.18;;;2.25;;
4704;SDS011;2366;51.332;6.610;2024-02-16T00:53:44;3.70;;;2.43;;
4704;SDS011;2366;51.332;6.610;2024-02-16T00:56:10;3.70;;;2.40;;
4704;SDS011;2366;51.332;6.610;2024-02-16T00:58:36;2.65;;;2.15;;
4704;SDS011;2366;51.332;6.610;2024-02-16T01:01:03;7.90;;;3.08;;
4704;SDS011;2366;51.332;6.610;2024-02-16T01:03:29;6.95;;;2.25;;
4704;SDS011;2366;51.332;6.610;2024-02-16T01:05:54;3.03;;;2.33;;
4704;SDS011;2366;51.332;6.610;2024-02-16T01:08:20;4.57;;;2.27;;
4704;SDS011;2366;51.332;6.610;2024-02-16T01:10:45;2.97;;;2.10;;
4704;SDS011;2366;51.332;6.610;2024-02-16T01:13:12;2.25;;;2.00;;
4704;SDS011;2366;51.332;6.610;2024-02-16T01:15:37;4.20;;;2.33;;
4704;SDS011;2366;51.332;6.610;2024-02-16T01:18:03;7.57;;;2.40;;
4704;SDS011;2366;51.332;6.610;2024-02-16T01:20:29;3.95;;;2.33;;
4704;SDS011;2366;51.332;6.610;2024-02-16T01:22:56;3.88;;;2.53;;
4704;SDS011;2366;51.332;6.610;2024-02-16T01:25:22;3.03;;;2.30;;
4704;SDS011;2366;51.332;6.610;2024-02-16T01:27:47;5.57;;;3.33;;
4704;SDS011;2366;51.332;6.610;2024-02-16T01:30:13;3.20;;;1.90;;
4704;SDS011;2366;51.332;6.610;2024-02-16T01:32:40;5.55;;;2.53;;
4704;SDS011;2366;51.332;6.610;2024-02-16T01:35:06;2.97;;;2.23;;
4704;SDS011;2366;51.332;6.610;2024-02-16T01:37:32;3.70;;;2.50;;
4704;SDS011;2366;51.332;6.610;2024-02-16T01:39:57;5.33;;;2.50;;
4704;SDS011;2366;51.332;6.610;2024-02-16T01:42:22;2.50;;;1.60;;
4704;SDS011;2366;51.332;6.610;2024-02-16T01:44:48;4.00;;;2.60;;
4704;SDS011;2366;51.332;6.610;2024-02-16T01:47:13;7.53;;;2.63;;
4704;SDS011;2366;51.332;6.610;2024-02-16T01:49:40;4.30;;;2.45;;
4704;SDS011;2366;51.332;6.610;2024-02-16T01:52:05;4.70;;;2.60;;
4704;SDS011;2366;51.332;6.610;2024-02-16T01:54:31;5.17;;;2.40;;
4704;SDS011;2366;51.332;6.610;2024-02-16T01:56:57;5.17;;;2.30;;
4704;SDS011;2366;51.332;6.610;2024-02-16T01:59:23;2.90;;;2.22;;
4704;SDS011;2366;51.332;6.610;2024-02-16T02:01:49;4.85;;;2.10;;
4704;SDS011;2366;51.332;6.610;2024-02-16T02:04:16;5.25;;;2.83;;
4704;SDS011;2366;51.332;6.610;2024-02-16T02:06:41;4.23;;;2.50;;
4704;SDS011;2366;51.332;6.610;2024-02-16T02:09:07;5.40;;;3.17;;
4704;SDS011;2366;51.332;6.610;2024-02-16T02:11:34;4.45;;;1.70;;
4704;SDS011;2366;51.332;6.610;2024-02-16T02:13:59;8.73;;;3.07;;
4704;SDS011;2366;51.332;6.610;2024-02-16T02:16:25;9.47;;;2.60;;
4704;SDS011;2366;51.332;6.610;2024-02-16T02:18:51;5.20;;;2.72;;
4704;SDS011;2366;51.332;6.610;2024-02-16T02:21:17;5.17;;;2.53;;
4704;SDS011;2366;51.332;6.610;2024-02-16T02:23:42;4.50;;;2.50;;
4704;SDS011;2366;51.332;6.610;2024-02-16T02:26:08;5.97;;;2.47;;
4704;SDS011;2366;51.332;6.610;2024-02-16T02:28:34;6.93;;;2.30;;
4704;SDS011;2366;51.332;6.610;2024-02-16T02:30:59;3.23;;;2.43;;
4704;SDS011;2366;51.332;6.610;2024-02-16T02:33:25;8.20;;;2.70;;
4704;SDS011;2366;51.332;6.610;2024-02-16T02:35:50;7.37;;;2.60;;
4704;SDS011;2366;51.332;6.610;2024-02-16T02:38:16;2.93;;;1.80;;
4704;SDS011;2366;51.332;6.610;2024-02-16T02:40:42;4.70;;;2.80;;
4704;SDS011;2366;51.332;6.610;2024-02-16T02:43:07;4.80;;;2.60;;
4704;SDS011;2366;51.332;6.610;2024-02-16T02:45:33;8.75;;;2.83;;
4704;SDS011;2366;51.332;6.610;2024-02-16T02:47:58;4.23;;;2.40;;
4704;SDS011;2366;51.332;6.610;2024-02-16T02:50:24;4.28;;;2.65;;
4704;SDS011;2366;51.332;6.610;2024-02-16T02:52:50;5.27;;;2.67;;
4704;SDS011;2366;51.332;6.610;2024-02-16T02:55:15;7.67;;;2.23;;
4704;SDS011;2366;51.332;6.610;2024-02-16T02:57:41;2.42;;;2.22;;
4704;SDS011;2366;51.332;6.610;2024-02-16T03:00:07;8.33;;;3.23;;
4704;SDS011;2366;51.332;6.610;2024-02-16T03:02:39;5.28;;;2.20;;
4704;SDS011;2366;51.332;6.610;2024-02-16T03:05:06;4.63;;;2.40;;
4704;SDS011;2366;51.332;6.610;2024-02-16T03:07:34;5.53;;;2.72;;
4704;SDS011;2366;51.332;6.610;2024-02-16T03:10:00;2.88;;;2.55;;
4704;SDS011;2366;51.332;6.610;2024-02-16T03:12:26;5.93;;;2.92;;
4704;SDS011;2366;51.332;6.610;2024-02-16T03:14:52;5.90;;;2.78;;
4704;SDS011;2366;51.332;6.610;2024-02-16T03:17:18;3.63;;;2.40;;
4704;SDS011;2366;51.332;6.610;2024-02-16T03:19:43;5.17;;;2.67;;
4704;SDS011;2366;51.332;6.610;2024-02-16T03:22:09;3.33;;;2.77;;
4704;SDS011;2366;51.332;6.610;2024-02-16T03:24:34;3.93;;;2.20;;
4704;SDS011;2366;51.332;6.610;2024-02-16T03:27:00;5.53;;;2.50;;
4704;SDS011;2366;51.332;6.610;2024-02-16T03:29:25;4.70;;;2.30;;
4704;SDS011;2366;51.332;6.610;2024-02-16T03:31:51;5.07;;;2.23;;
4704;SDS011;2366;51.332;6.610;2024-02-16T03:34:17;12.37;;;3.00;;
4704;SDS011;2366;51.332;6.610;2024-02-16T03:36:42;4.47;;;2.70;;
4704;SDS011;2366;51.332;6.610;2024-02-16T03:39:07;7.47;;;3.40;;
4704;SDS011;2366;51.332;6.610;2024-02-16T03:41:33;8.30;;;3.10;;
4704;SDS011;2366;51.332;6.610;2024-02-16T03:43:59;6.37;;;3.07;;
4704;SDS011;2366;51.332;6.610;2024-02-16T03:46:25;4.83;;;2.30;;
4704;SDS011;2366;51.332;6.610;2024-02-16T03:48:51;5.80;;;2.13;;
4704;SDS011;2366;51.332;6.610;2024-02-16T03:51:16;3.33;;;2.23;;
4704;SDS011;2366;51.332;6.610;2024-02-16T03:53:42;7.27;;;3.20;;
4704;SDS011;2366;51.332;6.610;2024-02-16T03:56:09;10.80;;;2.55;;
4704;SDS011;2366;51.332;6.610;2024-02-16T03:58:35;2.77;;;2.23;;
4704;SDS011;2366;51.332;6.610;2024-02-16T04:01:02;5.90;;;2.55;;
4704;SDS011;2366;51.332;6.610;2024-02-16T04:03:27;9.07;;;2.90;;
4704;SDS011;2366;51.332;6.610;2024-02-16T04:05:53;6.53;;;2.97;;
4704;SDS011;2366;51.332;6.610;2024-02-16T04:08:18;11.33;;;3.03;;
4704;SDS011;2366;51.332;6.610;2024-02-16T04:10:47;3.73;;;2.33;;
4704;SDS011;2366;51.332;6.610;2024-02-16T04:13:12;8.57;;;2.72;;
4704;SDS011;2366;51.332;6.610;2024-02-16T04:15:38;9.23;;;2.50;;
4704;SDS011;2366;51.332;6.610;2024-02-16T04:18:03;2.57;;;2.37;;
4704;SDS011;2366;51.332;6.610;2024-02-16T04:20:29;3.88;;;2.70;;
4704;SDS011;2366;51.332;6.610;2024-02-16T04:22:55;4.93;;;3.07;;
4704;SDS011;2366;51.332;6.610;2024-02-16T04:25:21;7.23;;;3.07;;
4704;SDS011;2366;51.332;6.610;2024-02-16T04:27:46;4.67;;;2.60;;
4704;SDS011;2366;51.332;6.610;2024-02-16T04:30:11;3.67;;;3.00;;
4704;SDS011;2366;51.332;6.610;2024-02-16T04:32:37;4.47;;;3.10;;
4704;SDS011;2366;51.332;6.610;2024-02-16T04:35:02;4.00;;;2.70;;
4704;SDS011;2366;51.332;6.610;2024-02-16T04:37:29;3.55;;;3.05;;
4704;SDS011;2366;51.332;6.610;2024-02-16T04:39:54;6.77;;;2.27;;
4704;SDS011;2366;51.332;6.610;2024-02-16T04:42:19;3.90;;;2.10;;
4704;SDS011;2366;51.332;6.610;2024-02-16T04:44:45;7.30;;;3.70;;
4704;SDS011;2366;51.332;6.610;2024-02-16T04:47:10;7.83;;;2.67;;
4704;SDS011;2366;51.332;6.610;2024-02-16T04:49:36;4.80;;;3.13;;
4704;SDS011;2366;51.332;6.610;2024-02-16T04:52:02;5.97;;;3.27;;
4704;SDS011;2366;51.332;6.610;2024-02-16T04:54:28;3.17;;;2.28;;
4704;SDS011;2366;51.332;6.610;2024-02-16T04:56:54;2.88;;;2.50;;
4704;SDS011;2366;51.332;6.610;2024-02-16T04:59:19;3.80;;;1.97;;
4704;SDS011;2366;51.332;6.610;2024-02-16T05:01:45;4.87;;;2.20;;
4704;SDS011;2366;51.332;6.610;2024-02-16T05:04:11;2.60;;;2.23;;
4704;SDS011;2366;51.332;6.610;2024-02-16T05:06:45;3.35;;;2.28;;
4704;SDS011;2366;51.332;6.610;2024-02-16T05:09:11;4.10;;;2.47;;
4704;SDS011;2366;51.332;6.610;2024-02-16T05:11:37;6.37;;;2.63;;
4704;SDS011;2366;51.332;6.610;2024-02-16T05:14:02;3.93;;;2.60;;
4704;SDS011;2366;51.332;6.610;2024-02-16T05:16:28;2.70;;;2.30;;
4704;SDS011;2366;51.332;6.610;2024-02-16T05:18:55;4.05;;;2.08;;
4704;SDS011;2366;51.332;6.610;2024-02-16T05:21:21;4.03;;;2.15;;
4704;SDS011;2366;51.332;6.610;2024-02-16T05:23:47;3.40;;;2.77;;
4704;SDS011;2366;51.332;6.610;2024-02-16T05:26:13;7.13;;;3.67;;
4704;SDS011;2366;51.332;6.610;2024-02-16T05:28:38;5.40;;;3.30;;
4704;SDS011;2366;51.332;6.610;2024-02-16T05:31:13;4.53;;;2.67;;
4704;SDS011;2366;51.332;6.610;2024-02-16T05:33:44;4.50;;;2.70;;
4704;SDS011;2366;51.332;6.610;2024-02-16T05:36:10;8.32;;;2.67;;
4704;SDS011;2366;51.332;6.610;2024-02-16T05:38:36;6.10;;;2.80;;
4704;SDS011;2366;51.332;6.610;2024-02-16T05:41:06;15.93;;;3.63;;
4704;SDS011;2366;51.332;6.610;2024-02-16T05:43:33;5.75;;;3.30;;
4704;SDS011;2366;51.332;6.610;2024-02-16T05:45:59;9.25;;;3.50;;
4704;SDS011;2366;51.332;6.610;2024-02-16T05:48:24;4.67;;;2.83;;
4704;SDS011;2366;51.332;6.610;2024-02-16T05:50:52;6.60;;;3.20;;
4704;SDS011;2366;51.332;6.610;2024-02-16T05:53:17;8.23;;;3.40;;
4704;SDS011;2366;51.332;6.610;2024-02-16T05:55:44;9.35;;;3.05;;
4704;SDS011;2366;51.332;6.610;2024-02-16T05:58:09;6.07;;;4.07;;
4704;SDS011;2366;51.332;6.610;2024-02-16T06:00:35;10.60;;;3.53;;
4704;SDS011;2366;51.332;6.610;2024-02-16T06:03:01;9.17;;;4.50;;
4704;SDS011;2366;51.332;6.610;2024-02-16T06:05:26;14.73;;;3.83;;
4704;SDS011;2366;51.332;6.610;2024-02-16T06:07:52;7.72;;;3.30;;
4704;SDS011;2366;51.332;6.610;2024-02-16T06:10:18;9.30;;;3.40;;
4704;SDS011;2366;51.332;6.610;2024-02-16T06:12:43;5.60;;;2.77;;
4704;SDS011;2366;51.332;6.610;2024-02-16T06:15:09;4.53;;;3.33;;
4704;SDS011;2366;51.332;6.610;2024-02-16T06:17:35;6.53;;;3.13;;
4704;SDS011;2366;51.332;6.610;2024-02-16T06:20:01;6.43;;;3.00;;
4704;SDS011;2366;51.332;6.610;2024-02-16T06:22:29;4.47;;;3.33;;
4704;SDS011;2366;51.332;6.610;2024-02-16T06:24:57;9.35;;;3.10;;
4704;SDS011;2366;51.332;6.610;2024-02-16T06:27:22;9.83;;;3.30;;
4704;SDS011;2366;51.332;6.610;2024-02-16T06:29:48;7.20;;;3.25;;
4704;SDS011;2366;51.332;6.610;2024-02-16T06:32:14;3.73;;;3.00;;
4704;SDS011;2366;51.332;6.610;2024-02-16T06:34:42;4.00;;;2.75;;
4704;SDS011;2366;51.332;6.610;2024-02-16T06:37:07;4.67;;;2.40;;
4704;SDS011;2366;51.332;6.610;2024-02-16T06:39:33;5.13;;;2.90;;
4704;SDS011;2366;51.332;6.610;2024-02-16T06:41:59;5.78;;;3.05;;
4704;SDS011;2366;51.332;6.610;2024-02-16T06:44:25;2.63;;;2.40;;
4704;SDS011;2366;51.332;6.610;2024-02-16T06:46:51;3.27;;;2.97;;
4704;SDS011;2366;51.332;6.610;2024-02-16T06:49:16;6.47;;;3.13;;
4704;SDS011;2366;51.332;6.610;2024-02-16T06:51:42;5.40;;;2.73;;
4704;SDS011;2366;51.332;6.610;2024-02-16T06:54:10;4.32;;;2.70;;
4704;SDS011;2366;51.332;6.610;2024-02-16T06:56:35;8.63;;;3.30;;
4704;SDS011;2366;51.332;6.610;2024-02-16T06:59:01;5.13;;;3.30;;
4704;SDS011;2366;51.332;6.610;2024-02-16T07:01:26;6.83;;;3.20;;
4704;SDS011;2366;51.332;6.610;2024-02-16T07:03:54;8.98;;;2.97;;
4704;SDS011;2366;51.332;6.610;2024-02-16T07:06:20;3.37;;;2.63;;
4704;SDS011;2366;51.332;6.610;2024-02-16T07:08:45;4.70;;;3.03;;
4704;SDS011;2366;51.332;6.610;2024-02-16T07:11:11;5.47;;;2.73;;
4704;SDS011;2366;51.332;6.610;2024-02-16T07:13:38;4.55;;;2.45;;
4704;SDS011;2366;51.332;6.610;2024-02-16T07:16:09;3.90;;;2.65;;
4704;SDS011;2366;51.332;6.610;2024-02-16T07:18:35;6.50;;;3.40;;
4704;SDS011;2366;51.332;6.610;2024-02-16T07:21:01;4.15;;;3.05;;
4704;SDS011;2366;51.332;6.610;2024-02-16T07:23:27;4.27;;;2.97;;
4704;SDS011;2366;51.332;6.610;2024-02-16T07:25:52;10.80;;;3.40;;
4704;SDS011;2366;51.332;6.610;2024-02-16T07:28:21;6.55;;;3.40;;
4704;SDS011;2366;51.332;6.610;2024-02-16T07:30:52;3.80;;;3.20;;
4704;SDS011;2366;51.332;6.610;2024-02-16T07:33:18;6.88;;;3.55;;
4704;SDS011;2366;51.332;6.610;2024-02-16T07:35:44;8.43;;;2.97;;
4704;SDS011;2366;51.332;6.610;2024-02-16T07:38:09;6.83;;;3.63;;
4704;SDS011;2366;51.332;6.610;2024-02-16T07:40:35;6.78;;;4.05;;
4704;SDS011;2366;51.332;6.610;2024-02-16T07:43:01;8.10;;;3.00;;
4704;SDS011;2366;51.332;6.610;2024-02-16T07:45:28;5.07;;;2.88;;
4704;SDS011;2366;51.332;6.610;2024-02-16T07:47:53;3.67;;;3.33;;
4704;SDS011;2366;51.332;6.610;2024-02-16T07:50:19;4.97;;;3.60;;
4704;SDS011;2366;51.332;6.610;2024-02-16T07:52:48;5.50;;;3.30;;
4704;SDS011;2366;51.332;6.610;2024-02-16T07:55:15;5.47;;;3.25;;
4704;SDS011;2366;51.332;6.610;2024-02-16T07:57:43;9.13;;;3.05;;
4704;SDS011;2366;51.332;6.610;2024-02-16T08:00:08;6.80;;;3.00;;
4704;SDS011;2366;51.332;6.610;2024-02-16T08:02:35;6.32;;;3.10;;
4704;SDS011;2366;51.332;6.610;2024-02-16T08:05:01;3.43;;;2.27;;
4704;SDS011;2366;51.332;6.610;2024-02-16T08:07:27;6.43;;;3.90;;
4704;SDS011;2366;51.332;6.610;2024-02-16T08:09:52;5.30;;;2.93;;
4704;SDS011;2366;51.332;6.610;2024-02-16T08:12:18;6.10;;;2.73;;
4704;SDS011;2366;51.332;6.610;2024-02-16T08:14:43;9.93;;;3.43;;
4704;SDS011;2366;51.332;6.610;2024-02-16T08:17:10;6.95;;;3.55;;
4704;SDS011;2366;51.332;6.610;2024-02-16T08:19:36;5.20;;;2.45;;
4704;SDS011;2366;51.332;6.610;2024-02-16T08:22:02;11.15;;;3.42;;
4704;SDS011;2366;51.332;6.610;2024-02-16T08:24:32;7.28;;;3.22;;
4704;SDS011;2366;51.332;6.610;2024-02-16T08:26:58;4.43;;;2.70;;
4704;SDS011;2366;51.332;6.610;2024-02-16T08:29:23;5.23;;;2.90;;
4704;SDS011;2366;51.332;6.610;2024-02-16T08:31:50;9.88;;;4.10;;
4704;SDS011;2366;51.332;6.610;2024-02-16T08:34:16;4.17;;;2.43;;
4704;SDS011;2366;51.332;6.610;2024-02-16T08:36:45;7.97;;;3.20;;
4704;SDS011;2366;51.332;6.610;2024-02-16T08:39:12;4.70;;;2.67;;
4704;SDS011;2366;51.332;6.610;2024-02-16T08:41:38;4.75;;;3.38;;
4704;SDS011;2366;51.332;6.610;2024-02-16T08:44:06;10.60;;;3.80;;
4704;SDS011;2366;51.332;6.610;2024-02-16T08:46:34;4.05;;;2.90;;
4704;SDS011;2366;51.332;6.610;2024-02-16T08:49:01;5.55;;;3.25;;
4704;SDS011;2366;51.332;6.610;2024-02-16T08:51:26;5.50;;;3.90;;
4704;SDS011;2366;51.332;6.610;2024-02-16T08:53:52;4.60;;;2.97;;
4704;SDS011;2366;51.332;6.610;2024-02-16T08:56:17;3.93;;;2.60;;
4704;SDS011;2366;51.332;6.610;2024-02-16T08:58:42;9.20;;;3.50;;
4704;SDS011;2366;51.332;6.610;2024-02-16T09:01:08;8.20;;;3.90;;
4704;SDS011;2366;51.332;6.610;2024-02-16T09:03:33;8.90;;;2.70;;
4704;SDS011;2366;51.332;6.610;2024-02-16T09:06:03;9.10;;;3.30;;
4704;SDS011;2366;51.332;6.610;2024-02-16T09:08:29;5.13;;;3.43;;
4704;SDS011;2366;51.332;6.610;2024-02-16T09:10:58;10.73;;;3.55;;
4704;SDS011;2366;51.332;6.610;2024-02-16T09:13:24;5.50;;;3.33;;
4704;SDS011;2366;51.332;6.610;2024-02-16T09:15:50;3.37;;;3.07;;
4704;SDS011;2366;51.332;6.610;2024-02-16T09:18:16;9.77;;;3.60;;
4704;SDS011;2366;51.332;6.610;2024-02-16T09:20:42;8.30;;;4.53;;
4704;SDS011;2366;51.332;6.610;2024-02-16T09:23:07;7.77;;;3.20;;
4704;SDS011;2366;51.332;6.610;2024-02-16T09:25:34;2.88;;;2.35;;
4704;SDS011;2366;51.332;6.610;2024-02-16T09:28:00;8.97;;;2.87;;
4704;SDS011;2366;51.332;6.610;2024-02-16T09:30:25;4.93;;;2.97;;
4704;SDS011;2366;51.332;6.610;2024-02-16T09:32:51;7.50;;;3.30;;
4704;SDS011;2366;51.332;6.610;2024-02-16T09:35:17;5.60;;;2.55;;
4704;SDS011;2366;51.332;6.610;2024-02-16T09:37:42;8.70;;;3.30;;
4704;SDS011;2366;51.332;6.610;2024-02-16T09:40:08;3.10;;;2.70;;
4704;SDS011;2366;51.332;6.610;2024-02-16T09:42:37;8.60;;;4.03;;
4704;SDS011;2366;51.332;6.610;2024-02-16T09:45:04;4.53;;;3.30;;
4704;SDS011;2366;51.332;6.610;2024-02-16T09:47:33;12.50;;;3.10;;
4704;SDS011;2366;51.332;6.610;2024-02-16T09:50:03;7.70;;;2.97;;
4704;SDS011;2366;51.332;6.610;2024-02-16T09:52:29;6.35;;;2.70;;
4704;SDS011;2366;51.332;6.610;2024-02-16T09:54:55;3.72;;;2.95;;
4704;SDS011;2366;51.332;6.610;2024-02-16T09:57:21;5.43;;;3.50;;
4704;SDS011;2366;51.332;6.610;2024-02-16T09:59:46;6.97;;;2.90;;
4704;SDS011;2366;51.332;6.610;2024-02-16T10:02:11;4.47;;;2.90;;
4704;SDS011;2366;51.332;6.610;2024-02-16T10:04:37;4.63;;;3.27;;
4704;SDS011;2366;51.332;6.610;2024-02-16T10:07:02;5.53;;;3.33;;
4704;SDS011;2366;51.332;6.610;2024-02-16T10:09:30;12.43;;;4.07;;
4704;SDS011;2366;51.332;6.610;2024-02-16T10:11:55;6.63;;;2.90;;
4704;SDS011;2366;51.332;6.610;2024-02-16T10:14:20;4.57;;;3.40;;
4704;SDS011;2366;51.332;6.610;2024-02-16T10:16:47;7.70;;;2.97;;
4704;SDS011;2366;51.332;6.610;2024-02-16T10:19:13;5.22;;;3.13;;
4704;SDS011;2366;51.332;6.610;2024-02-16T10:21:39;8.80;;;2.95;;
4704;SDS011;2366;51.332;6.610;2024-02-16T10:24:05;7.83;;;4.87;;
4704;SDS011;2366;51.332;6.610;2024-02-16T10:26:38;4.13;;;2.47;;
4704;SDS011;2366;51.332;6.610;2024-02-16T10:29:16;6.97;;;2.67;;
4704;SDS011;2366;51.332;6.610;2024-02-16T10:31:45;10.07;;;3.63;;
4704;SDS011;2366;51.332;6.610;2024-02-16T10:34:10;8.53;;;3.73;;
4704;SDS011;2366;51.332;6.610;2024-02-16T10:36:36;6.83;;;3.37;;
4704;SDS011;2366;51.332;6.610;2024-02-16T10:39:03;10.38;;;4.38;;
4704;SDS011;2366;51.332;6.610;2024-02-16T10:41:33;8.18;;;3.05;;
4704;SDS011;2366;51.332;6.610;2024-02-16T10:44:02;10.98;;;3.60;;
4704;SDS011;2366;51.332;6.610;2024-02-16T10:46:29;4.25;;;3.20;;
4704;SDS011;2366;51.332;6.610;2024-02-16T10:48:55;7.30;;;3.90;;
4704;SDS011;2366;51.332;6.610;2024-02-16T10:51:23;9.57;;;3.90;;
4704;SDS011;2366;51.332;6.610;2024-02-16T10:53:51;6.45;;;3.83;;
4704;SDS011;2366;51.332;6.610;2024-02-16T10:56:26;9.15;;;4.05;;
4704;SDS011;2366;51.332;6.610;2024-02-16T10:59:04;8.40;;;3.90;;
4704;SDS011;2366;51.332;6.610;2024-02-16T11:01:42;4.95;;;3.10;;
4704;SDS011;2366;51.332;6.610;2024-02-16T11:04:10;9.07;;;3.22;;
4704;SDS011;2366;51.332;6.610;2024-02-16T11:06:54;8.80;;;3.60;;
4704;SDS011;2366;51.332;6.610;2024-02-16T11:12:00;7.28;;;4.20;;
4704;SDS011;2366;51.332;6.610;2024-02-16T11:14:34;5.72;;;3.72;;
4704;SDS011;2366;51.332;6.610;2024-02-16T11:17:11;8.15;;;3.72;;
4704;SDS011;2366;51.332;6.610;2024-02-16T11:19:40;6.50;;;3.45;;
4704;SDS011;2366;51.332;6.610;2024-02-16T11:22:07;7.90;;;3.30;;
4704;SDS011;2366;51.332;6.610;2024-02-16T11:24:34;10.18;;;3.67;;
4704;SDS011;2366;51.332;6.610;2024-02-16T11:27:04;11.05;;;4.22;;
4704;SDS011;2366;51.332;6.610;2024-02-16T11:29:36;11.75;;;4.60;;
4704;SDS011;2366;51.332;6.610;2024-02-16T11:32:04;7.53;;;4.07;;
4704;SDS011;2366;51.332;6.610;2024-02-16T11:34:30;6.32;;;4.22;;
4704;SDS011;2366;51.332;6.610;2024-02-16T11:37:01;9.50;;;4.25;;
4704;SDS011;2366;51.332;6.610;2024-02-16T11:39:27;8.05;;;3.92;;
4704;SDS011;2366;51.332;6.610;2024-02-16T11:42:04;11.77;;;4.45;;
4704;SDS011;2366;51.332;6.610;2024-02-16T11:44:30;13.05;;;4.00;;
4704;SDS011;2366;51.332;6.610;2024-02-16T11:46:57;11.45;;;4.05;;
4704;SDS011;2366;51.332;6.610;2024-02-16T11:49:22;8.77;;;4.00;;
4704;SDS011;2366;51.332;6.610;2024-02-16T11:51:48;13.10;;;4.23;;
4704;SDS011;2366;51.332;6.610;2024-02-16T11:54:16;8.70;;;5.13;;
4704;SDS011;2366;51.332;6.610;2024-02-16T11:56:51;14.18;;;4.50;;
4704;SDS011;2366;51.332;6.610;2024-02-16T11:59:17;8.18;;;4.38;;
4704;SDS011;2366;51.332;6.610;2024-02-16T12:04:20;8.27;;;4.57;;
4704;SDS011;2366;51.332;6.610;2024-02-16T12:06:47;14.80;;;5.85;;
4704;SDS011;2366;51.332;6.610;2024-02-16T12:09:15;8.63;;;5.03;;
4704;SDS011;2366;51.332;6.610;2024-02-16T12:11:41;9.65;;;5.43;;
4704;SDS011;2366;51.332;6.610;2024-02-16T12:14:07;10.30;;;5.80;;
4704;SDS011;2366;51.332;6.610;2024-02-16T12:16:32;17.07;;;6.20;;
4704;SDS011;2366;51.332;6.610;2024-02-16T12:19:02;10.10;;;6.30;;
4704;SDS011;2366;51.332;6.610;2024-02-16T12:21:31;7.50;;;5.32;;
4704;SDS011;2366;51.332;6.610;2024-02-16T12:23:56;11.23;;;5.57;;
4704;SDS011;2366;51.332;6.610;2024-02-16T12:26:22;9.40;;;5.20;;
4704;SDS011;2366;51.332;6.610;2024-02-16T12:28:47;14.47;;;7.53;;
4704;SDS011;2366;51.332;6.610;2024-02-16T12:31:20;17.40;;;7.72;;
4704;SDS011;2366;51.332;6.610;2024-02-16T12:33:46;13.00;;;6.00;;
4704;SDS011;2366;51.332;6.610;2024-02-16T12:36:12;16.50;;;6.00;;
4704;SDS011;2366;51.332;6.610;2024-02-16T12:38:37;14.20;;;6.17;;
4704;SDS011;2366;51.332;6.610;2024-02-16T12:41:02;8.67;;;6.47;;
4704;SDS011;2366;51.332;6.610;2024-02-16T12:43:28;7.17;;;5.70;;
4704;SDS011;2366;51.332;6.610;2024-02-16T12:45:54;14.17;;;6.70;;
4704;SDS011;2366;51.332;6.610;2024-02-16T12:48:20;8.90;;;6.00;;
4704;SDS011;2366;51.332;6.610;2024-02-16T12:50:45;12.87;;;6.33;;
4704;SDS011;2366;51.332;6.610;2024-02-16T12:53:12;22.10;;;7.50;;
4704;SDS011;2366;51.332;6.610;2024-02-16T12:55:37;11.53;;;7.23;;
4704;SDS011;2366;51.332;6.610;2024-02-16T12:58:03;13.40;;;5.83;;
4704;SDS011;2366;51.332;6.610;2024-02-16T13:00:28;9.90;;;5.97;;
4704;SDS011;2366;51.332;6.610;2024-02-16T13:02:54;20.43;;;6.33;;
4704;SDS011;2366;51.332;6.610;2024-02-16T13:05:19;13.13;;;7.77;;
4704;SDS011;2366;51.332;6.610;2024-02-16T13:07:45;7.73;;;5.00;;
4704;SDS011;2366;51.332;6.610;2024-02-16T13:10:10;14.33;;;6.20;;
4704;SDS011;2366;51.332;6.610;2024-02-16T13:12:37;12.73;;;6.80;;
4704;SDS011;2366;51.332;6.610;2024-02-16T13:15:03;8.98;;;5.75;;
4704;SDS011;2366;51.332;6.610;2024-02-16T13:17:30;10.57;;;7.30;;
4704;SDS011;2366;51.332;6.610;2024-02-16T13:19:55;11.40;;;6.17;;
4704;SDS011;2366;51.332;6.610;2024-02-16T13:22:28;12.15;;;6.05;;
4704;SDS011;2366;51.332;6.610;2024-02-16T13:24:54;11.97;;;6.60;;
4704;SDS011;2366;51.332;6.610;2024-02-16T13:27:19;14.50;;;6.47;;
4704;SDS011;2366;51.332;6.610;2024-02-16T13:29:44;10.47;;;6.90;;
4704;SDS011;2366;51.332;6.610;2024-02-16T13:32:10;11.00;;;6.93;;
4704;SDS011;2366;51.332;6.610;2024-02-16T13:34:35;12.90;;;8.20;;
4704;SDS011;2366;51.332;6.610;2024-02-16T13:37:02;13.95;;;7.90;;
4704;SDS011;2366;51.332;6.610;2024-02-16T13:39:27;15.57;;;8.47;;
4704;SDS011;2366;51.332;6.610;2024-02-16T13:41:53;13.67;;;7.27;;
4704;SDS011;2366;51.332;6.610;2024-02-16T13:44:18;13.70;;;8.70;;
4704;SDS011;2366;51.332;6.610;2024-02-16T13:46:46;12.57;;;9.25;;
4704;SDS011;2366;51.332;6.610;2024-02-16T13:49:14;20.55;;;8.68;;
4704;SDS011;2366;51.332;6.610;2024-02-16T13:51:40;12.30;;;8.83;;
4704;SDS011;2366;51.332;6.610;2024-02-16T13:54:06;21.77;;;10.15;;
4704;SDS011;2366;51.332;6.610;2024-02-16T13:56:32;15.33;;;9.43;;
4704;SDS011;2366;51.332;6.610;2024-02-16T13:58:57;13.43;;;9.70;;
4704;SDS011;2366;51.332;6.610;2024-02-16T14:01:22;14.30;;;9.97;;
4704;SDS011;2366;51.332;6.610;2024-02-16T14:03:51;16.40;;;10.43;;
4704;SDS011;2366;51.332;6.610;2024-02-16T14:06:17;20.88;;;10.15;;
4704;SDS011;2366;51.332;6.610;2024-02-16T14:08:42;17.30;;;10.47;;
4704;SDS011;2366;51.332;6.610;2024-02-16T14:11:08;19.40;;;11.40;;
4704;SDS011;2366;51.332;6.610;2024-02-16T14:13:34;15.53;;;11.03;;
4704;SDS011;2366;51.332;6.610;2024-02-16T14:15:59;17.27;;;10.90;;
4704;SDS011;2366;51.332;6.610;2024-02-16T14:18:25;15.43;;;11.27;;
4704;SDS011;2366;51.332;6.610;2024-02-16T14:20:50;15.23;;;11.20;;
4704;SDS011;2366;51.332;6.610;2024-02-16T14:23:16;20.17;;;12.13;;
4704;SDS011;2366;51.332;6.610;2024-02-16T14:25:41;13.10;;;10.90;;
4704;SDS011;2366;51.332;6.610;2024-02-16T14:28:06;15.27;;;11.30;;
4704;SDS011;2366;51.332;6.610;2024-02-16T14:30:32;15.20;;;10.90;;
4704;SDS011;2366;51.332;6.610;2024-02-16T14:32:59;10.38;;;9.35;;
4704;SDS011;2366;51.332;6.610;2024-02-16T14:35:25;10.57;;;9.40;;
4704;SDS011;2366;51.332;6.610;2024-02-16T14:37:50;12.87;;;7.70;;
4704;SDS011;2366;51.332;6.610;2024-02-16T14:40:15;10.37;;;8.30;;
4704;SDS011;2366;51.332;6.610;2024-02-16T14:42:41;12.00;;;8.67;;
4704;SDS011;2366;51.332;6.610;2024-02-16T14:45:07;9.45;;;8.20;;
4704;SDS011;2366;51.332;6.610;2024-02-16T14:47:44;10.30;;;9.02;;
4704;SDS011;2366;51.332;6.610;2024-02-16T14:50:12;9.20;;;8.10;;
4704;SDS011;2366;51.332;6.610;2024-02-16T14:52:38;9.10;;;8.23;;
4704;SDS011;2366;51.332;6.610;2024-02-16T14:55:04;7.30;;;6.80;;
4704;SDS011;2366;51.332;6.610;2024-02-16T14:57:35;8.48;;;7.65;;
4704;SDS011;2366;51.332;6.610;2024-02-16T15:00:05;9.15;;;8.30;;
4704;SDS011;2366;51.332;6.610;2024-02-16T15:02:31;9.73;;;8.20;;
4704;SDS011;2366;51.332;6.610;2024-02-16T15:04:57;10.80;;;8.17;;
4704;SDS011;2366;51.332;6.610;2024-02-16T15:07:22;9.70;;;8.70;;
4704;SDS011;2366;51.332;6.610;2024-02-16T15:09:48;11.83;;;9.70;;
4704;SDS011;2366;51.332;6.610;2024-02-16T15:12:13;10.70;;;7.43;;